sensor_id;sensor_type;location;lat;lon;timestamp;noise_LAeq;noise_LA_min;noise_LA_max;noise_LA01;noise_LA95
64996;Laerm;51545;51.568;6.998;2022-07-22T00:02:20;40.76;33.93;58.10;;
64996;Laerm;51545;51.568;6.998;2022-07-22T00:04:46;37.77;31.51;43.51;;
64996;Laerm;51545;51.568;6.998;2022-07-22T00:07:11;40.61;33.28;47.59;;
64996;Laerm;51545;51.568;6.998;2022-07-22T00:09:38;37.30;31.33;46.47;;
64996;Laerm;51545;51.568;6.998;2022-07-22T00:12:04;36.25;30.07;45.80;;
64996;Laerm;51545;51.568;6.998;2022-07-22T00:14:30;37.28;33.09;43.10;;
64996;Laerm;51545;51.568;6.998;2022-07-22T00:16:55;33.65;29.51;43.30;;
64996;Laerm;51545;51.568;6.998;2022-07-22T00:19:21;34.65;29.91;42.45;;
64996;Laerm;51545;51.568;6.998;2022-07-22T00:21:47;37.21;31.16;45.56;;
64996;Laerm;51545;51.568;6.998;2022-07-22T00:24:12;36.62;30.72;43.84;;
64996;Laerm;51545;51.568;6.998;2022-07-22T00:26:38;36.89;31.64;43.57;;
64996;Laerm;51545;51.568;6.998;2022-07-22T00:29:03;37.62;29.96;47.10;;
64996;Laerm;51545;51.568;6.998;2022-07-22T00:31:29;34.45;30.24;40.04;;
64996;Laerm;51545;51.568;6.998;2022-07-22T00:33:56;39.07;32.77;51.49;;
64996;Laerm;51545;51.568;6.998;2022-07-22T00:36:21;39.00;32.18;53.13;;
64996;Laerm;51545;51.568;6.998;2022-07-22T00:38:47;38.48;32.27;47.81;;
64996;Laerm;51545;51.568;6.998;2022-07-22T00:41:12;39.36;31.08;46.41;;
64996;Laerm;51545;51.568;6.998;2022-07-22T00:44:00;39.41;31.25;62.57;;
64996;Laerm;51545;51.568;6.998;2022-07-22T00:46:27;37.91;30.62;49.06;;
64996;Laerm;51545;51.568;6.998;2022-07-22T00:48:53;35.91;29.99;44.93;;
64996;Laerm;51545;51.568;6.998;2022-07-22T00:51:20;36.64;30.34;43.93;;
64996;Laerm;51545;51.568;6.998;2022-07-22T00:53:46;35.62;29.56;42.77;;
64996;Laerm;51545;51.568;6.998;2022-07-22T00:56:13;34.89;29.07;42.08;;
64996;Laerm;51545;51.568;6.998;2022-07-22T00:58:39;36.51;28.89;44.41;;
64996;Laerm;51545;51.568;6.998;2022-07-22T01:01:05;36.57;29.87;41.73;;
64996;Laerm;51545;51.568;6.998;2022-07-22T01:03:31;37.41;30.99;45.29;;
64996;Laerm;51545;51.568;6.998;2022-07-22T01:05:56;38.07;30.00;57.63;;
64996;Laerm;51545;51.568;6.998;2022-07-22T01:08:22;36.10;30.22;43.25;;
64996;Laerm;51545;51.568;6.998;2022-07-22T01:10:48;37.52;33.53;42.40;;
64996;Laerm;51545;51.568;6.998;2022-07-22T01:13:14;36.74;30.78;43.55;;
64996;Laerm;51545;51.568;6.998;2022-07-22T01:15:39;37.50;31.53;45.05;;
64996;Laerm;51545;51.568;6.998;2022-07-22T01:18:05;38.29;31.53;45.33;;
64996;Laerm;51545;51.568;6.998;2022-07-22T01:20:32;37.82;31.78;43.65;;
64996;Laerm;51545;51.568;6.998;2022-07-22T01:22:57;35.76;30.83;44.02;;
64996;Laerm;51545;51.568;6.998;2022-07-22T01:25:23;36.28;31.94;41.20;;
64996;Laerm;51545;51.568;6.998;2022-07-22T01:27:48;36.71;30.64;44.29;;
64996;Laerm;51545;51.568;6.998;2022-07-22T01:30:14;36.34;29.51;44.24;;
64996;Laerm;51545;51.568;6.998;2022-07-22T01:32:39;37.05;30.17;45.46;;
64996;Laerm;51545;51.568;6.998;2022-07-22T01:35:05;37.42;30.56;46.46;;
64996;Laerm;51545;51.568;6.998;2022-07-22T01:37:33;38.23;30.89;42.63;;
64996;Laerm;51545;51.568;6.998;2022-07-22T01:39:59;38.41;31.23;45.06;;
64996;Laerm;51545;51.568;6.998;2022-07-22T01:42:24;35.18;29.57;44.35;;
64996;Laerm;51545;51.568;6.998;2022-07-22T01:44:51;37.16;32.62;44.31;;
64996;Laerm;51545;51.568;6.998;2022-07-22T01:47:16;38.10;32.54;43.54;;
64996;Laerm;51545;51.568;6.998;2022-07-22T01:49:41;38.45;31.77;44.50;;
64996;Laerm;51545;51.568;6.998;2022-07-22T01:52:07;39.49;33.27;45.41;;
64996;Laerm;51545;51.568;6.998;2022-07-22T01:54:33;37.54;32.28;49.27;;
64996;Laerm;51545;51.568;6.998;2022-07-22T01:56:58;37.04;31.69;46.33;;
64996;Laerm;51545;51.568;6.998;2022-07-22T01:59:24;39.08;33.43;45.36;;
64996;Laerm;51545;51.568;6.998;2022-07-22T02:01:49;37.50;32.64;43.73;;
64996;Laerm;51545;51.568;6.998;2022-07-22T02:04:14;37.14;30.99;41.51;;
64996;Laerm;51545;51.568;6.998;2022-07-22T02:06:40;38.25;33.09;47.50;;
64996;Laerm;51545;51.568;6.998;2022-07-22T02:09:06;36.95;32.42;42.55;;
64996;Laerm;51545;51.568;6.998;2022-07-22T02:11:31;37.51;31.56;45.02;;
64996;Laerm;51545;51.568;6.998;2022-07-22T02:13:57;37.49;30.89;42.98;;
64996;Laerm;51545;51.568;6.998;2022-07-22T02:16:22;35.03;31.19;42.67;;
64996;Laerm;51545;51.568;6.998;2022-07-22T02:18:48;39.07;34.41;44.02;;
64996;Laerm;51545;51.568;6.998;2022-07-22T02:21:14;39.11;32.77;55.56;;
64996;Laerm;51545;51.568;6.998;2022-07-22T02:23:39;39.73;32.09;46.54;;
64996;Laerm;51545;51.568;6.998;2022-07-22T02:26:05;40.48;32.95;45.73;;
64996;Laerm;51545;51.568;6.998;2022-07-22T02:28:30;39.36;32.61;44.89;;
64996;Laerm;51545;51.568;6.998;2022-07-22T02:30:56;39.79;34.40;49.88;;
64996;Laerm;51545;51.568;6.998;2022-07-22T02:33:21;38.88;33.57;45.29;;
64996;Laerm;51545;51.568;6.998;2022-07-22T02:35:47;39.01;33.09;47.84;;
64996;Laerm;51545;51.568;6.998;2022-07-22T02:38:12;38.32;31.93;43.93;;
64996;Laerm;51545;51.568;6.998;2022-07-22T02:40:38;37.71;32.52;43.48;;
64996;Laerm;51545;51.568;6.998;2022-07-22T02:43:03;39.76;32.24;47.33;;
64996;Laerm;51545;51.568;6.998;2022-07-22T02:45:31;38.98;34.63;44.88;;
64996;Laerm;51545;51.568;6.998;2022-07-22T02:47:57;38.98;33.16;43.19;;
64996;Laerm;51545;51.568;6.998;2022-07-22T02:50:23;39.54;33.06;47.00;;
64996;Laerm;51545;51.568;6.998;2022-07-22T02:52:49;39.44;32.65;47.01;;
64996;Laerm;51545;51.568;6.998;2022-07-22T02:55:15;39.94;33.82;46.72;;
64996;Laerm;51545;51.568;6.998;2022-07-22T02:57:40;39.19;33.37;43.88;;
64996;Laerm;51545;51.568;6.998;2022-07-22T03:00:08;40.53;35.67;47.84;;
64996;Laerm;51545;51.568;6.998;2022-07-22T03:02:34;41.21;35.92;48.58;;
64996;Laerm;51545;51.568;6.998;2022-07-22T03:05:00;40.27;34.66;50.75;;
64996;Laerm;51545;51.568;6.998;2022-07-22T03:07:26;41.50;34.10;53.14;;
64996;Laerm;51545;51.568;6.998;2022-07-22T03:09:51;41.33;36.05;47.97;;
64996;Laerm;51545;51.568;6.998;2022-07-22T03:12:17;41.18;37.09;45.89;;
64996;Laerm;51545;51.568;6.998;2022-07-22T03:14:42;41.25;36.61;44.84;;
64996;Laerm;51545;51.568;6.998;2022-07-22T03:17:08;41.91;36.11;46.70;;
64996;Laerm;51545;51.568;6.998;2022-07-22T03:19:33;41.22;35.62;46.66;;
64996;Laerm;51545;51.568;6.998;2022-07-22T03:21:59;41.77;36.04;46.03;;
64996;Laerm;51545;51.568;6.998;2022-07-22T03:24:24;40.85;36.32;45.18;;
64996;Laerm;51545;51.568;6.998;2022-07-22T03:26:49;41.71;37.56;53.38;;
64996;Laerm;51545;51.568;6.998;2022-07-22T03:29:15;43.40;36.36;51.48;;
64996;Laerm;51545;51.568;6.998;2022-07-22T03:31:40;41.13;36.19;45.22;;
64996;Laerm;51545;51.568;6.998;2022-07-22T03:34:06;43.13;37.78;48.07;;
64996;Laerm;51545;51.568;6.998;2022-07-22T03:36:31;43.60;38.54;48.44;;
64996;Laerm;51545;51.568;6.998;2022-07-22T03:38:57;42.60;38.44;48.27;;
64996;Laerm;51545;51.568;6.998;2022-07-22T03:41:22;42.93;37.95;55.71;;
64996;Laerm;51545;51.568;6.998;2022-07-22T03:43:48;44.10;39.28;54.36;;
64996;Laerm;51545;51.568;6.998;2022-07-22T03:46:14;43.62;38.65;60.84;;
64996;Laerm;51545;51.568;6.998;2022-07-22T03:48:40;45.00;38.30;60.76;;
64996;Laerm;51545;51.568;6.998;2022-07-22T03:51:05;41.37;37.69;50.83;;
64996;Laerm;51545;51.568;6.998;2022-07-22T03:53:31;43.22;37.26;60.33;;
64996;Laerm;51545;51.568;6.998;2022-07-22T03:55:58;42.12;37.82;48.93;;
64996;Laerm;51545;51.568;6.998;2022-07-22T03:58:24;42.73;36.28;54.99;;
64996;Laerm;51545;51.568;6.998;2022-07-22T04:00:52;41.63;37.79;45.64;;
64996;Laerm;51545;51.568;6.998;2022-07-22T04:03:17;41.85;37.21;46.45;;
64996;Laerm;51545;51.568;6.998;2022-07-22T04:05:42;41.84;37.11;49.28;;
64996;Laerm;51545;51.568;6.998;2022-07-22T04:08:08;42.37;35.98;47.91;;
64996;Laerm;51545;51.568;6.998;2022-07-22T04:10:33;42.60;38.48;46.30;;
64996;Laerm;51545;51.568;6.998;2022-07-22T04:12:59;42.47;37.59;47.09;;
64996;Laerm;51545;51.568;6.998;2022-07-22T04:15:24;42.71;37.43;46.26;;
64996;Laerm;51545;51.568;6.998;2022-07-22T04:17:50;42.65;37.57;53.86;;
64996;Laerm;51545;51.568;6.998;2022-07-22T04:20:15;42.23;37.91;46.45;;
64996;Laerm;51545;51.568;6.998;2022-07-22T04:22:41;41.86;38.47;47.06;;
64996;Laerm;51545;51.568;6.998;2022-07-22T04:25:06;41.43;37.45;45.49;;
64996;Laerm;51545;51.568;6.998;2022-07-22T04:27:32;40.88;36.03;52.56;;
64996;Laerm;51545;51.568;6.998;2022-07-22T04:29:58;41.27;35.39;53.13;;
64996;Laerm;51545;51.568;6.998;2022-07-22T04:32:23;42.34;36.82;50.46;;
64996;Laerm;51545;51.568;6.998;2022-07-22T04:34:49;42.10;36.28;49.73;;
64996;Laerm;51545;51.568;6.998;2022-07-22T04:37:14;42.25;37.51;51.05;;
64996;Laerm;51545;51.568;6.998;2022-07-22T04:39:40;42.16;38.19;47.28;;
64996;Laerm;51545;51.568;6.998;2022-07-22T04:42:05;42.97;37.84;49.99;;
64996;Laerm;51545;51.568;6.998;2022-07-22T04:44:31;42.53;38.23;48.02;;
64996;Laerm;51545;51.568;6.998;2022-07-22T04:46:56;42.33;37.93;47.99;;
64996;Laerm;51545;51.568;6.998;2022-07-22T04:49:22;41.41;37.40;54.25;;
64996;Laerm;51545;51.568;6.998;2022-07-22T04:51:47;41.46;35.43;51.64;;
64996;Laerm;51545;51.568;6.998;2022-07-22T04:54:13;42.04;38.73;49.46;;
64996;Laerm;51545;51.568;6.998;2022-07-22T04:56:38;43.17;36.98;61.67;;
64996;Laerm;51545;51.568;6.998;2022-07-22T04:59:04;45.78;37.17;73.18;;
64996;Laerm;51545;51.568;6.998;2022-07-22T05:01:29;41.35;36.32;50.33;;
64996;Laerm;51545;51.568;6.998;2022-07-22T05:03:55;44.27;37.38;60.77;;
64996;Laerm;51545;51.568;6.998;2022-07-22T05:06:20;44.34;38.04;55.31;;
64996;Laerm;51545;51.568;6.998;2022-07-22T05:08:46;41.93;37.91;49.17;;
64996;Laerm;51545;51.568;6.998;2022-07-22T05:11:12;41.74;37.64;48.00;;
64996;Laerm;51545;51.568;6.998;2022-07-22T05:13:37;42.27;37.26;46.42;;
64996;Laerm;51545;51.568;6.998;2022-07-22T05:16:06;41.52;37.63;46.90;;
64996;Laerm;51545;51.568;6.998;2022-07-22T05:18:32;43.42;38.28;62.23;;
64996;Laerm;51545;51.568;6.998;2022-07-22T05:20:57;42.19;35.91;49.15;;
64996;Laerm;51545;51.568;6.998;2022-07-22T05:23:23;42.42;37.82;48.59;;
64996;Laerm;51545;51.568;6.998;2022-07-22T05:25:48;42.59;38.26;52.46;;
64996;Laerm;51545;51.568;6.998;2022-07-22T05:28:14;43.31;38.76;50.00;;
64996;Laerm;51545;51.568;6.998;2022-07-22T05:30:39;43.55;38.93;56.22;;
64996;Laerm;51545;51.568;6.998;2022-07-22T05:33:05;42.72;37.31;58.29;;
64996;Laerm;51545;51.568;6.998;2022-07-22T05:35:31;42.44;38.57;48.45;;
64996;Laerm;51545;51.568;6.998;2022-07-22T05:37:56;43.32;39.48;49.46;;
64996;Laerm;51545;51.568;6.998;2022-07-22T05:40:22;44.76;40.78;54.14;;
64996;Laerm;51545;51.568;6.998;2022-07-22T05:42:48;43.12;38.15;50.31;;
64996;Laerm;51545;51.568;6.998;2022-07-22T05:45:13;43.84;39.29;50.49;;
64996;Laerm;51545;51.568;6.998;2022-07-22T05:47:39;42.25;36.39;60.51;;
64996;Laerm;51545;51.568;6.998;2022-07-22T05:50:05;42.45;38.14;56.23;;
64996;Laerm;51545;51.568;6.998;2022-07-22T05:52:30;43.21;35.84;58.87;;
64996;Laerm;51545;51.568;6.998;2022-07-22T05:54:59;42.35;37.52;50.69;;
64996;Laerm;51545;51.568;6.998;2022-07-22T05:57:25;42.02;37.53;50.61;;
64996;Laerm;51545;51.568;6.998;2022-07-22T05:59:50;41.49;36.06;62.93;;
64996;Laerm;51545;51.568;6.998;2022-07-22T06:02:16;40.97;36.66;46.91;;
64996;Laerm;51545;51.568;6.998;2022-07-22T06:04:41;41.87;35.39;49.91;;
64996;Laerm;51545;51.568;6.998;2022-07-22T06:07:07;42.55;37.31;57.82;;
64996;Laerm;51545;51.568;6.998;2022-07-22T06:09:32;41.55;35.98;52.43;;
64996;Laerm;51545;51.568;6.998;2022-07-22T06:11:57;41.63;35.91;54.29;;
64996;Laerm;51545;51.568;6.998;2022-07-22T06:14:23;41.72;36.06;52.22;;
64996;Laerm;51545;51.568;6.998;2022-07-22T06:16:49;39.41;35.11;49.59;;
64996;Laerm;51545;51.568;6.998;2022-07-22T06:19:14;39.44;35.01;48.01;;
64996;Laerm;51545;51.568;6.998;2022-07-22T06:21:40;43.01;36.00;58.06;;
64996;Laerm;51545;51.568;6.998;2022-07-22T06:24:06;43.00;34.88;58.36;;
64996;Laerm;51545;51.568;6.998;2022-07-22T06:26:31;42.11;34.87;55.32;;
64996;Laerm;51545;51.568;6.998;2022-07-22T06:28:57;42.84;37.28;51.88;;
64996;Laerm;51545;51.568;6.998;2022-07-22T06:31:22;42.40;37.93;50.91;;
64996;Laerm;51545;51.568;6.998;2022-07-22T06:33:48;43.24;39.00;49.05;;
64996;Laerm;51545;51.568;6.998;2022-07-22T06:36:13;42.42;34.06;48.23;;
64996;Laerm;51545;51.568;6.998;2022-07-22T06:38:40;42.92;39.36;48.21;;
64996;Laerm;51545;51.568;6.998;2022-07-22T06:41:06;42.46;37.37;49.85;;
64996;Laerm;51545;51.568;6.998;2022-07-22T06:43:32;43.15;37.60;53.68;;
64996;Laerm;51545;51.568;6.998;2022-07-22T06:45:57;42.37;37.99;50.16;;
64996;Laerm;51545;51.568;6.998;2022-07-22T06:48:23;42.37;37.52;49.57;;
64996;Laerm;51545;51.568;6.998;2022-07-22T06:50:49;43.56;37.92;66.77;;
64996;Laerm;51545;51.568;6.998;2022-07-22T06:53:14;42.37;36.22;53.66;;
64996;Laerm;51545;51.568;6.998;2022-07-22T06:55:40;40.77;35.99;51.53;;
64996;Laerm;51545;51.568;6.998;2022-07-22T06:58:05;41.19;36.23;52.24;;
64996;Laerm;51545;51.568;6.998;2022-07-22T07:00:31;41.25;36.30;50.59;;
64996;Laerm;51545;51.568;6.998;2022-07-22T07:03:00;43.19;35.80;66.84;;
64996;Laerm;51545;51.568;6.998;2022-07-22T07:05:26;41.74;35.80;55.66;;
64996;Laerm;51545;51.568;6.998;2022-07-22T07:07:52;40.96;34.36;51.76;;
64996;Laerm;51545;51.568;6.998;2022-07-22T07:10:18;41.62;37.18;51.30;;
64996;Laerm;51545;51.568;6.998;2022-07-22T07:12:44;40.85;35.87;49.21;;
64996;Laerm;51545;51.568;6.998;2022-07-22T07:15:10;41.59;35.11;56.55;;
64996;Laerm;51545;51.568;6.998;2022-07-22T07:17:36;42.25;37.42;59.07;;
64996;Laerm;51545;51.568;6.998;2022-07-22T07:20:03;41.51;35.68;48.54;;
64996;Laerm;51545;51.568;6.998;2022-07-22T07:22:28;40.80;34.61;50.39;;
64996;Laerm;51545;51.568;6.998;2022-07-22T07:24:54;41.36;36.62;57.25;;
64996;Laerm;51545;51.568;6.998;2022-07-22T07:27:19;43.07;36.26;53.36;;
64996;Laerm;51545;51.568;6.998;2022-07-22T07:29:45;42.77;35.85;50.84;;
64996;Laerm;51545;51.568;6.998;2022-07-22T07:32:11;47.05;36.90;74.07;;
64996;Laerm;51545;51.568;6.998;2022-07-22T07:34:36;42.88;37.40;54.40;;
64996;Laerm;51545;51.568;6.998;2022-07-22T07:37:02;42.02;37.21;62.15;;
64996;Laerm;51545;51.568;6.998;2022-07-22T07:39:27;46.03;36.88;61.99;;
64996;Laerm;51545;51.568;6.998;2022-07-22T07:41:53;43.81;35.87;60.84;;
64996;Laerm;51545;51.568;6.998;2022-07-22T07:44:18;42.26;37.63;56.49;;
64996;Laerm;51545;51.568;6.998;2022-07-22T07:46:44;40.77;36.50;46.56;;
64996;Laerm;51545;51.568;6.998;2022-07-22T07:49:09;41.28;36.96;54.19;;
64996;Laerm;51545;51.568;6.998;2022-07-22T07:51:35;42.20;34.88;53.60;;
64996;Laerm;51545;51.568;6.998;2022-07-22T07:54:00;40.35;35.86;53.55;;
64996;Laerm;51545;51.568;6.998;2022-07-22T07:56:26;42.65;37.05;50.38;;
64996;Laerm;51545;51.568;6.998;2022-07-22T07:58:51;40.01;34.75;54.19;;
64996;Laerm;51545;51.568;6.998;2022-07-22T08:01:17;41.64;35.19;59.46;;
64996;Laerm;51545;51.568;6.998;2022-07-22T08:03:42;39.80;35.57;54.58;;
64996;Laerm;51545;51.568;6.998;2022-07-22T08:06:08;40.67;35.23;50.84;;
64996;Laerm;51545;51.568;6.998;2022-07-22T08:08:33;42.99;37.80;62.69;;
64996;Laerm;51545;51.568;6.998;2022-07-22T08:10:59;40.99;34.35;50.31;;
64996;Laerm;51545;51.568;6.998;2022-07-22T08:13:24;41.76;37.81;53.56;;
64996;Laerm;51545;51.568;6.998;2022-07-22T08:15:50;42.21;36.11;64.12;;
64996;Laerm;51545;51.568;6.998;2022-07-22T08:18:15;40.84;37.25;53.59;;
64996;Laerm;51545;51.568;6.998;2022-07-22T08:20:41;44.12;37.00;66.54;;
64996;Laerm;51545;51.568;6.998;2022-07-22T08:23:06;42.24;36.53;59.64;;
64996;Laerm;51545;51.568;6.998;2022-07-22T08:25:32;41.15;34.82;59.40;;
64996;Laerm;51545;51.568;6.998;2022-07-22T08:27:57;40.21;35.62;54.47;;
64996;Laerm;51545;51.568;6.998;2022-07-22T08:30:23;41.34;35.87;56.16;;
64996;Laerm;51545;51.568;6.998;2022-07-22T08:32:52;42.72;38.75;55.21;;
64996;Laerm;51545;51.568;6.998;2022-07-22T08:35:18;44.36;35.96;72.47;;
64996;Laerm;51545;51.568;6.998;2022-07-22T08:37:43;40.54;36.36;50.37;;
64996;Laerm;51545;51.568;6.998;2022-07-22T08:40:11;44.14;37.57;54.12;;
64996;Laerm;51545;51.568;6.998;2022-07-22T08:42:40;39.83;35.84;59.31;;
64996;Laerm;51545;51.568;6.998;2022-07-22T08:45:08;39.41;35.69;55.53;;
64996;Laerm;51545;51.568;6.998;2022-07-22T08:47:34;42.35;36.20;54.28;;
64996;Laerm;51545;51.568;6.998;2022-07-22T08:50:00;42.76;36.46;67.97;;
64996;Laerm;51545;51.568;6.998;2022-07-22T08:52:26;41.60;36.88;54.64;;
64996;Laerm;51545;51.568;6.998;2022-07-22T08:54:52;40.93;35.87;55.09;;
64996;Laerm;51545;51.568;6.998;2022-07-22T08:57:18;40.65;35.92;57.45;;
64996;Laerm;51545;51.568;6.998;2022-07-22T08:59:55;44.98;33.58;67.89;;
64996;Laerm;51545;51.568;6.998;2022-07-22T09:02:22;40.31;36.41;51.86;;
64996;Laerm;51545;51.568;6.998;2022-07-22T09:04:56;40.26;35.73;50.91;;
64996;Laerm;51545;51.568;6.998;2022-07-22T09:09:57;41.30;37.01;50.21;;
64996;Laerm;51545;51.568;6.998;2022-07-22T09:12:23;41.47;35.40;62.81;;
64996;Laerm;51545;51.568;6.998;2022-07-22T09:14:51;40.12;36.32;48.92;;
64996;Laerm;51545;51.568;6.998;2022-07-22T09:19:50;40.44;36.33;60.64;;
64996;Laerm;51545;51.568;6.998;2022-07-22T09:22:33;42.54;36.51;64.68;;
64996;Laerm;51545;51.568;6.998;2022-07-22T09:27:48;45.53;37.27;62.09;;
64996;Laerm;51545;51.568;6.998;2022-07-22T09:30:25;46.01;40.52;66.20;;
64996;Laerm;51545;51.568;6.998;2022-07-22T09:32:53;46.26;40.68;58.00;;
64996;Laerm;51545;51.568;6.998;2022-07-22T09:35:22;43.22;37.83;56.94;;
64996;Laerm;51545;51.568;6.998;2022-07-22T09:40:19;44.23;38.45;56.03;;
64996;Laerm;51545;51.568;6.998;2022-07-22T09:42:51;42.97;38.81;57.12;;
64996;Laerm;51545;51.568;6.998;2022-07-22T09:45:18;43.03;38.28;54.19;;
64996;Laerm;51545;51.568;6.998;2022-07-22T09:47:44;44.60;37.18;65.36;;
64996;Laerm;51545;51.568;6.998;2022-07-22T09:50:16;44.29;38.16;62.43;;
64996;Laerm;51545;51.568;6.998;2022-07-22T09:52:43;44.35;37.71;61.83;;
64996;Laerm;51545;51.568;6.998;2022-07-22T09:55:08;49.01;38.35;76.10;;
64996;Laerm;51545;51.568;6.998;2022-07-22T09:57:34;45.54;38.28;65.26;;
64996;Laerm;51545;51.568;6.998;2022-07-22T10:00:00;41.39;36.25;58.98;;
64996;Laerm;51545;51.568;6.998;2022-07-22T10:02:27;46.91;37.91;68.97;;
64996;Laerm;51545;51.568;6.998;2022-07-22T10:04:54;43.39;38.01;63.01;;
64996;Laerm;51545;51.568;6.998;2022-07-22T10:07:22;41.57;36.71;54.75;;
64996;Laerm;51545;51.568;6.998;2022-07-22T10:09:48;41.08;37.71;50.89;;
64996;Laerm;51545;51.568;6.998;2022-07-22T10:12:15;41.01;35.99;50.47;;
64996;Laerm;51545;51.568;6.998;2022-07-22T10:14:42;40.86;37.21;46.65;;
64996;Laerm;51545;51.568;6.998;2022-07-22T10:17:13;46.37;37.50;59.44;;
64996;Laerm;51545;51.568;6.998;2022-07-22T10:19:39;44.39;36.41;55.39;;
64996;Laerm;51545;51.568;6.998;2022-07-22T10:22:04;41.78;37.16;52.29;;
64996;Laerm;51545;51.568;6.998;2022-07-22T10:24:30;41.50;37.80;48.86;;
64996;Laerm;51545;51.568;6.998;2022-07-22T10:26:57;41.62;38.14;52.17;;
64996;Laerm;51545;51.568;6.998;2022-07-22T10:29:32;41.12;36.10;58.50;;
64996;Laerm;51545;51.568;6.998;2022-07-22T10:40:21;40.03;34.94;56.63;;
64996;Laerm;51545;51.568;6.998;2022-07-22T10:45:28;40.41;35.68;54.39;;
64996;Laerm;51545;51.568;6.998;2022-07-22T10:47:57;39.47;35.28;46.30;;
64996;Laerm;51545;51.568;6.998;2022-07-22T10:53:01;40.63;36.23;60.88;;
64996;Laerm;51545;51.568;6.998;2022-07-22T10:55:27;41.62;35.15;61.58;;
64996;Laerm;51545;51.568;6.998;2022-07-22T10:57:52;39.57;33.58;61.57;;
64996;Laerm;51545;51.568;6.998;2022-07-22T11:00:18;39.64;35.36;59.22;;
64996;Laerm;51545;51.568;6.998;2022-07-22T11:02:43;39.72;35.73;46.09;;
64996;Laerm;51545;51.568;6.998;2022-07-22T11:05:09;39.28;33.53;62.35;;
64996;Laerm;51545;51.568;6.998;2022-07-22T11:07:44;39.32;33.93;52.81;;
64996;Laerm;51545;51.568;6.998;2022-07-22T11:10:11;39.36;34.43;47.47;;
64996;Laerm;51545;51.568;6.998;2022-07-22T11:12:38;41.19;36.41;59.17;;
64996;Laerm;51545;51.568;6.998;2022-07-22T11:15:04;41.69;37.69;57.42;;
64996;Laerm;51545;51.568;6.998;2022-07-22T11:17:32;40.62;36.89;51.73;;
64996;Laerm;51545;51.568;6.998;2022-07-22T11:20:04;49.91;37.79;56.66;;
64996;Laerm;51545;51.568;6.998;2022-07-22T11:22:30;51.12;45.72;56.32;;
64996;Laerm;51545;51.568;6.998;2022-07-22T11:24:57;50.93;46.35;61.13;;
64996;Laerm;51545;51.568;6.998;2022-07-22T11:27:25;50.83;45.74;61.64;;
64996;Laerm;51545;51.568;6.998;2022-07-22T11:29:52;50.23;43.18;55.84;;
64996;Laerm;51545;51.568;6.998;2022-07-22T11:32:20;46.77;36.00;54.33;;
64996;Laerm;51545;51.568;6.998;2022-07-22T11:34:46;40.05;34.27;51.89;;
64996;Laerm;51545;51.568;6.998;2022-07-22T11:37:16;40.20;36.18;49.07;;
64996;Laerm;51545;51.568;6.998;2022-07-22T11:39:42;40.94;36.12;51.83;;
64996;Laerm;51545;51.568;6.998;2022-07-22T11:42:08;42.44;35.56;65.20;;
64996;Laerm;51545;51.568;6.998;2022-07-22T11:44:36;40.61;34.46;50.88;;
64996;Laerm;51545;51.568;6.998;2022-07-22T11:47:02;39.94;34.91;55.98;;
64996;Laerm;51545;51.568;6.998;2022-07-22T11:49:31;39.60;35.02;52.76;;
64996;Laerm;51545;51.568;6.998;2022-07-22T11:51:59;47.45;34.55;63.44;;
64996;Laerm;51545;51.568;6.998;2022-07-22T11:54:25;51.43;35.02;68.93;;
64996;Laerm;51545;51.568;6.998;2022-07-22T11:56:50;39.50;34.31;54.63;;
64996;Laerm;51545;51.568;6.998;2022-07-22T11:59:16;39.57;33.62;66.23;;
64996;Laerm;51545;51.568;6.998;2022-07-22T12:01:47;38.73;32.50;49.24;;
64996;Laerm;51545;51.568;6.998;2022-07-22T12:04:19;38.11;33.68;53.45;;
64996;Laerm;51545;51.568;6.998;2022-07-22T12:06:45;38.89;33.94;60.82;;
64996;Laerm;51545;51.568;6.998;2022-07-22T12:11:47;38.29;34.17;47.52;;
64996;Laerm;51545;51.568;6.998;2022-07-22T12:14:22;39.80;35.31;60.95;;
64996;Laerm;51545;51.568;6.998;2022-07-22T12:16:59;39.45;35.70;51.26;;
64996;Laerm;51545;51.568;6.998;2022-07-22T12:19:26;46.98;35.48;62.49;;
64996;Laerm;51545;51.568;6.998;2022-07-22T12:22:21;44.58;35.45;65.01;;
64996;Laerm;51545;51.568;6.998;2022-07-22T12:24:58;41.81;35.73;60.96;;
64996;Laerm;51545;51.568;6.998;2022-07-22T12:27:23;42.77;35.23;64.20;;
64996;Laerm;51545;51.568;6.998;2022-07-22T12:29:49;44.10;36.05;62.43;;
64996;Laerm;51545;51.568;6.998;2022-07-22T12:34:44;44.87;36.25;65.41;;
64996;Laerm;51545;51.568;6.998;2022-07-22T12:37:21;43.28;37.00;58.04;;
64996;Laerm;51545;51.568;6.998;2022-07-22T12:40:06;46.24;35.53;64.63;;
64996;Laerm;51545;51.568;6.998;2022-07-22T12:42:37;44.21;37.29;61.45;;
64996;Laerm;51545;51.568;6.998;2022-07-22T12:50:19;47.06;34.73;69.42;;
64996;Laerm;51545;51.568;6.998;2022-07-22T12:52:47;42.83;36.87;61.27;;
64996;Laerm;51545;51.568;6.998;2022-07-22T12:55:12;45.00;36.72;57.82;;
64996;Laerm;51545;51.568;6.998;2022-07-22T12:57:38;42.06;34.33;63.52;;
64996;Laerm;51545;51.568;6.998;2022-07-22T13:00:04;42.22;34.54;65.42;;
64996;Laerm;51545;51.568;6.998;2022-07-22T13:02:30;42.21;34.75;58.96;;
64996;Laerm;51545;51.568;6.998;2022-07-22T13:04:55;51.81;34.79;65.76;;
64996;Laerm;51545;51.568;6.998;2022-07-22T13:07:20;41.80;35.72;56.22;;
64996;Laerm;51545;51.568;6.998;2022-07-22T13:09:46;39.20;34.09;53.70;;
64996;Laerm;51545;51.568;6.998;2022-07-22T13:12:11;39.09;34.07;45.44;;
64996;Laerm;51545;51.568;6.998;2022-07-22T13:14:37;40.96;35.20;54.81;;
64996;Laerm;51545;51.568;6.998;2022-07-22T13:17:03;38.73;34.87;49.78;;
64996;Laerm;51545;51.568;6.998;2022-07-22T13:19:28;40.51;34.09;55.09;;
64996;Laerm;51545;51.568;6.998;2022-07-22T13:21:54;42.28;33.45;61.49;;
64996;Laerm;51545;51.568;6.998;2022-07-22T13:24:19;43.10;35.22;61.50;;
64996;Laerm;51545;51.568;6.998;2022-07-22T13:26:45;41.96;33.49;71.37;;
64996;Laerm;51545;51.568;6.998;2022-07-22T13:29:11;40.24;34.82;54.35;;
64996;Laerm;51545;51.568;6.998;2022-07-22T13:31:37;40.00;34.40;52.92;;
64996;Laerm;51545;51.568;6.998;2022-07-22T13:34:03;38.73;34.37;48.02;;
64996;Laerm;51545;51.568;6.998;2022-07-22T13:36:28;39.19;35.24;59.10;;
64996;Laerm;51545;51.568;6.998;2022-07-22T13:38:57;40.90;35.71;56.33;;
64996;Laerm;51545;51.568;6.998;2022-07-22T13:41:23;46.27;34.69;58.21;;
64996;Laerm;51545;51.568;6.998;2022-07-22T13:43:48;40.23;36.35;49.86;;
64996;Laerm;51545;51.568;6.998;2022-07-22T13:46:14;39.67;34.23;54.55;;
64996;Laerm;51545;51.568;6.998;2022-07-22T13:48:40;41.06;33.84;61.58;;
64996;Laerm;51545;51.568;6.998;2022-07-22T13:51:06;42.86;37.57;55.58;;
64996;Laerm;51545;51.568;6.998;2022-07-22T13:53:32;44.12;36.83;61.76;;
64996;Laerm;51545;51.568;6.998;2022-07-22T13:55:58;45.73;37.08;65.99;;
64996;Laerm;51545;51.568;6.998;2022-07-22T13:58:23;44.20;37.32;57.95;;
64996;Laerm;51545;51.568;6.998;2022-07-22T14:00:49;50.25;36.55;75.19;;
64996;Laerm;51545;51.568;6.998;2022-07-22T14:03:14;40.93;35.79;56.17;;
64996;Laerm;51545;51.568;6.998;2022-07-22T14:05:40;44.21;36.09;65.86;;
64996;Laerm;51545;51.568;6.998;2022-07-22T14:08:05;42.61;36.22;59.37;;
64996;Laerm;51545;51.568;6.998;2022-07-22T14:10:31;42.94;36.57;58.74;;
64996;Laerm;51545;51.568;6.998;2022-07-22T14:12:56;41.04;35.39;59.17;;
64996;Laerm;51545;51.568;6.998;2022-07-22T14:15:22;41.64;36.12;55.70;;